sensor_id;sensor_type;location;lat;lon;timestamp;temperature;humidity
2647;DHT22;1333;50.958;6.770;2023-08-24T00:01:59;18.60;99.90
2647;DHT22;1333;50.958;6.770;2023-08-24T00:04:24;18.50;99.90
2647;DHT22;1333;50.958;6.770;2023-08-24T00:06:50;18.50;99.90
2647;DHT22;1333;50.958;6.770;2023-08-24T00:09:15;18.40;99.90
2647;DHT22;1333;50.958;6.770;2023-08-24T00:11:41;18.40;99.90
2647;DHT22;1333;50.958;6.770;2023-08-24T00:14:06;18.30;99.90
2647;DHT22;1333;50.958;6.770;2023-08-24T00:16:32;18.30;99.90
2647;DHT22;1333;50.958;6.770;2023-08-24T00:18:58;18.30;99.90
2647;DHT22;1333;50.958;6.770;2023-08-24T00:21:23;18.20;99.90
2647;DHT22;1333;50.958;6.770;2023-08-24T00:23:52;18.20;99.90
2647;DHT22;1333;50.958;6.770;2023-08-24T00:26:18;18.20;99.90
2647;DHT22;1333;50.958;6.770;2023-08-24T00:28:44;18.20;99.90
2647;DHT22;1333;50.958;6.770;2023-08-24T00:31:09;18.20;99.90
2647;DHT22;1333;50.958;6.770;2023-08-24T00:33:35;18.20;99.90
2647;DHT22;1333;50.958;6.770;2023-08-24T00:36:01;18.10;99.90
2647;DHT22;1333;50.958;6.770;2023-08-24T00:38:27;18.10;99.90
2647;DHT22;1333;50.958;6.770;2023-08-24T00:40:53;18.10;99.90
2647;DHT22;1333;50.958;6.770;2023-08-24T00:43:19;18.10;99.90
2647;DHT22;1333;50.958;6.770;2023-08-24T00:45:50;18.00;99.90
2647;DHT22;1333;50.958;6.770;2023-08-24T00:48:15;17.90;99.90
2647;DHT22;1333;50.958;6.770;2023-08-24T00:50:41;17.90;99.90
2647;DHT22;1333;50.958;6.770;2023-08-24T00:53:06;17.90;99.90
2647;DHT22;1333;50.958;6.770;2023-08-24T00:55:32;17.90;99.90
2647;DHT22;1333;50.958;6.770;2023-08-24T00:57:58;17.90;99.90
2647;DHT22;1333;50.958;6.770;2023-08-24T01:00:24;17.80;99.90
2647;DHT22;1333;50.958;6.770;2023-08-24T01:02:50;17.80;99.90
2647;DHT22;1333;50.958;6.770;2023-08-24T01:05:16;17.90;99.90
2647;DHT22;1333;50.958;6.770;2023-08-24T01:07:41;17.80;99.90
2647;DHT22;1333;50.958;6.770;2023-08-24T01:10:08;17.70;99.90
2647;DHT22;1333;50.958;6.770;2023-08-24T01:15:27;17.70;99.90
2647;DHT22;1333;50.958;6.770;2023-08-24T01:17:58;17.70;99.90
2647;DHT22;1333;50.958;6.770;2023-08-24T01:20:25;17.70;99.90
2647;DHT22;1333;50.958;6.770;2023-08-24T01:28:13;17.70;99.90
2647;DHT22;1333;50.958;6.770;2023-08-24T01:30:39;17.70;99.90
2647;DHT22;1333;50.958;6.770;2023-08-24T01:33:05;17.70;99.90
2647;DHT22;1333;50.958;6.770;2023-08-24T01:35:31;17.70;99.90
2647;DHT22;1333;50.958;6.770;2023-08-24T01:37:58;17.70;99.90
2647;DHT22;1333;50.958;6.770;2023-08-24T01:40:41;17.70;99.90
2647;DHT22;1333;50.958;6.770;2023-08-24T01:43:10;17.70;99.90
2647;DHT22;1333;50.958;6.770;2023-08-24T01:45:39;17.70;99.90
2647;DHT22;1333;50.958;6.770;2023-08-24T01:48:07;17.70;99.90
2647;DHT22;1333;50.958;6.770;2023-08-24T01:50:34;17.70;99.90
2647;DHT22;1333;50.958;6.770;2023-08-24T01:53:01;17.70;99.90
2647;DHT22;1333;50.958;6.770;2023-08-24T01:55:27;17.60;99.90
2647;DHT22;1333;50.958;6.770;2023-08-24T01:57:54;17.50;99.90
2647;DHT22;1333;50.958;6.770;2023-08-24T02:00:20;17.50;99.90
2647;DHT22;1333;50.958;6.770;2023-08-24T02:02:46;17.50;99.90
2647;DHT22;1333;50.958;6.770;2023-08-24T02:05:12;17.60;99.90
2647;DHT22;1333;50.958;6.770;2023-08-24T02:07:39;17.50;99.90
2647;DHT22;1333;50.958;6.770;2023-08-24T02:10:05;17.50;99.90
2647;DHT22;1333;50.958;6.770;2023-08-24T02:12:31;17.50;99.90
2647;DHT22;1333;50.958;6.770;2023-08-24T02:14:56;17.50;99.90
2647;DHT22;1333;50.958;6.770;2023-08-24T02:17:22;17.60;99.90
2647;DHT22;1333;50.958;6.770;2023-08-24T02:19:47;17.60;99.90
2647;DHT22;1333;50.958;6.770;2023-08-24T02:22:13;17.60;99.90
2647;DHT22;1333;50.958;6.770;2023-08-24T02:24:38;17.70;99.90
2647;DHT22;1333;50.958;6.770;2023-08-24T02:27:04;17.70;99.90
2647;DHT22;1333;50.958;6.770;2023-08-24T02:29:30;17.70;99.90
2647;DHT22;1333;50.958;6.770;2023-08-24T02:31:56;17.80;99.90
2647;DHT22;1333;50.958;6.770;2023-08-24T02:34:21;17.80;99.90
2647;DHT22;1333;50.958;6.770;2023-08-24T02:36:47;17.90;99.90
2647;DHT22;1333;50.958;6.770;2023-08-24T02:39:12;17.90;99.90
2647;DHT22;1333;50.958;6.770;2023-08-24T02:41:38;18.00;99.90
2647;DHT22;1333;50.958;6.770;2023-08-24T02:44:04;18.00;99.90
2647;DHT22;1333;50.958;6.770;2023-08-24T02:46:29;18.10;99.90
2647;DHT22;1333;50.958;6.770;2023-08-24T02:48:55;18.20;99.90
2647;DHT22;1333;50.958;6.770;2023-08-24T02:51:22;18.20;99.90
2647;DHT22;1333;50.958;6.770;2023-08-24T02:53:48;18.30;99.90
2647;DHT22;1333;50.958;6.770;2023-08-24T02:56:14;18.40;99.90
2647;DHT22;1333;50.958;6.770;2023-08-24T02:58:39;18.40;99.90
2647;DHT22;1333;50.958;6.770;2023-08-24T03:01:08;18.50;99.90
2647;DHT22;1333;50.958;6.770;2023-08-24T03:03:37;18.50;99.90
2647;DHT22;1333;50.958;6.770;2023-08-24T03:06:05;18.50;99.90
2647;DHT22;1333;50.958;6.770;2023-08-24T03:08:31;18.60;99.90
2647;DHT22;1333;50.958;6.770;2023-08-24T03:10:58;18.70;99.90
2647;DHT22;1333;50.958;6.770;2023-08-24T03:13:24;18.70;99.90
2647;DHT22;1333;50.958;6.770;2023-08-24T03:15:49;18.70;99.90
2647;DHT22;1333;50.958;6.770;2023-08-24T03:18:16;18.70;99.90
2647;DHT22;1333;50.958;6.770;2023-08-24T03:20:43;18.80;99.90
2647;DHT22;1333;50.958;6.770;2023-08-24T03:23:09;18.80;99.90
2647;DHT22;1333;50.958;6.770;2023-08-24T03:25:39;18.80;99.90
2647;DHT22;1333;50.958;6.770;2023-08-24T03:28:06;18.80;99.90
2647;DHT22;1333;50.958;6.770;2023-08-24T03:30:34;18.80;99.90
2647;DHT22;1333;50.958;6.770;2023-08-24T03:33:00;18.80;99.90
2647;DHT22;1333;50.958;6.770;2023-08-24T03:35:28;18.80;99.90
2647;DHT22;1333;50.958;6.770;2023-08-24T03:37:53;18.80;99.90
2647;DHT22;1333;50.958;6.770;2023-08-24T03:40:19;18.80;99.90
2647;DHT22;1333;50.958;6.770;2023-08-24T03:42:44;18.90;99.90
2647;DHT22;1333;50.958;6.770;2023-08-24T03:45:10;18.90;99.90
2647;DHT22;1333;50.958;6.770;2023-08-24T03:47:35;19.00;99.90
2647;DHT22;1333;50.958;6.770;2023-08-24T03:50:01;19.00;99.90
2647;DHT22;1333;50.958;6.770;2023-08-24T03:52:26;19.10;99.90
2647;DHT22;1333;50.958;6.770;2023-08-24T03:54:52;19.10;99.90
2647;DHT22;1333;50.958;6.770;2023-08-24T03:57:17;19.20;99.90
2647;DHT22;1333;50.958;6.770;2023-08-24T03:59:43;19.30;99.90
2647;DHT22;1333;50.958;6.770;2023-08-24T04:02:09;19.40;99.90
2647;DHT22;1333;50.958;6.770;2023-08-24T04:04:34;19.50;99.90
2647;DHT22;1333;50.958;6.770;2023-08-24T04:07:00;19.50;99.90
2647;DHT22;1333;50.958;6.770;2023-08-24T04:09:27;19.50;99.90
2647;DHT22;1333;50.958;6.770;2023-08-24T04:11:53;19.50;99.90
2647;DHT22;1333;50.958;6.770;2023-08-24T04:14:18;19.50;99.90
2647;DHT22;1333;50.958;6.770;2023-08-24T04:16:43;19.60;99.90
2647;DHT22;1333;50.958;6.770;2023-08-24T04:19:09;19.60;99.90
2647;DHT22;1333;50.958;6.770;2023-08-24T04:21:35;19.60;99.90
2647;DHT22;1333;50.958;6.770;2023-08-24T04:24:00;19.50;99.90
2647;DHT22;1333;50.958;6.770;2023-08-24T04:26:26;19.50;99.90
2647;DHT22;1333;50.958;6.770;2023-08-24T04:28:51;19.50;99.90
2647;DHT22;1333;50.958;6.770;2023-08-24T04:31:17;19.50;99.90
2647;DHT22;1333;50.958;6.770;2023-08-24T04:33:42;19.50;99.90
2647;DHT22;1333;50.958;6.770;2023-08-24T04:36:08;19.60;99.90
2647;DHT22;1333;50.958;6.770;2023-08-24T04:38:34;19.60;99.90
2647;DHT22;1333;50.958;6.770;2023-08-24T04:40:59;19.70;99.90
2647;DHT22;1333;50.958;6.770;2023-08-24T04:43:25;19.70;99.90
2647;DHT22;1333;50.958;6.770;2023-08-24T04:45:52;19.60;99.90
2647;DHT22;1333;50.958;6.770;2023-08-24T04:48:19;19.50;99.90
2647;DHT22;1333;50.958;6.770;2023-08-24T04:50:45;19.40;99.90
2647;DHT22;1333;50.958;6.770;2023-08-24T04:53:18;19.30;99.90
2647;DHT22;1333;50.958;6.770;2023-08-24T04:55:44;19.20;99.90
2647;DHT22;1333;50.958;6.770;2023-08-24T04:58:10;19.30;99.90
2647;DHT22;1333;50.958;6.770;2023-08-24T05:00:36;19.30;99.90
2647;DHT22;1333;50.958;6.770;2023-08-24T05:03:06;19.30;99.90
2647;DHT22;1333;50.958;6.770;2023-08-24T05:05:32;19.30;99.90
2647;DHT22;1333;50.958;6.770;2023-08-24T05:07:58;19.10;99.90
2647;DHT22;1333;50.958;6.770;2023-08-24T05:10:24;19.20;99.90
2647;DHT22;1333;50.958;6.770;2023-08-24T05:12:50;19.20;99.90
2647;DHT22;1333;50.958;6.770;2023-08-24T05:15:15;19.30;99.90
2647;DHT22;1333;50.958;6.770;2023-08-24T05:17:41;19.30;99.90
2647;DHT22;1333;50.958;6.770;2023-08-24T05:20:08;19.40;99.90
2647;DHT22;1333;50.958;6.770;2023-08-24T05:22:36;19.50;99.90
2647;DHT22;1333;50.958;6.770;2023-08-24T05:25:01;19.60;99.90
2647;DHT22;1333;50.958;6.770;2023-08-24T05:27:27;19.60;99.90
2647;DHT22;1333;50.958;6.770;2023-08-24T05:29:52;19.60;99.90
2647;DHT22;1333;50.958;6.770;2023-08-24T05:32:18;19.60;99.90
2647;DHT22;1333;50.958;6.770;2023-08-24T05:34:45;19.60;99.90
2647;DHT22;1333;50.958;6.770;2023-08-24T05:37:10;19.60;99.90
2647;DHT22;1333;50.958;6.770;2023-08-24T05:39:36;19.60;99.90
2647;DHT22;1333;50.958;6.770;2023-08-24T05:42:02;19.60;99.90
2647;DHT22;1333;50.958;6.770;2023-08-24T05:44:27;19.70;99.90
2647;DHT22;1333;50.958;6.770;2023-08-24T05:46:53;19.70;99.90
2647;DHT22;1333;50.958;6.770;2023-08-24T05:49:18;19.70;99.90
2647;DHT22;1333;50.958;6.770;2023-08-24T05:51:44;19.80;99.90
2647;DHT22;1333;50.958;6.770;2023-08-24T05:54:09;19.70;99.90
2647;DHT22;1333;50.958;6.770;2023-08-24T05:56:35;19.80;99.90
2647;DHT22;1333;50.958;6.770;2023-08-24T05:59:00;19.80;99.90
2647;DHT22;1333;50.958;6.770;2023-08-24T06:01:26;19.80;99.90
2647;DHT22;1333;50.958;6.770;2023-08-24T06:03:52;20.00;99.90
2647;DHT22;1333;50.958;6.770;2023-08-24T06:06:17;20.00;99.90
2647;DHT22;1333;50.958;6.770;2023-08-24T06:08:43;20.20;99.90
2647;DHT22;1333;50.958;6.770;2023-08-24T06:11:09;20.30;99.90
2647;DHT22;1333;50.958;6.770;2023-08-24T06:13:34;20.40;99.90
2647;DHT22;1333;50.958;6.770;2023-08-24T06:16:00;20.60;99.90
2647;DHT22;1333;50.958;6.770;2023-08-24T06:18:27;20.80;99.90
2647;DHT22;1333;50.958;6.770;2023-08-24T06:20:53;21.30;99.90
2647;DHT22;1333;50.958;6.770;2023-08-24T06:23:19;21.80;99.90
2647;DHT22;1333;50.958;6.770;2023-08-24T06:25:45;22.50;99.90
2647;DHT22;1333;50.958;6.770;2023-08-24T06:28:11;23.50;99.90
2647;DHT22;1333;50.958;6.770;2023-08-24T06:30:38;24.50;99.90
2647;DHT22;1333;50.958;6.770;2023-08-24T06:33:04;25.30;99.90
2647;DHT22;1333;50.958;6.770;2023-08-24T06:35:30;25.90;99.90
2647;DHT22;1333;50.958;6.770;2023-08-24T06:37:55;26.20;99.90
2647;DHT22;1333;50.958;6.770;2023-08-24T06:40:21;26.60;99.90
2647;DHT22;1333;50.958;6.770;2023-08-24T06:42:46;26.90;99.90
2647;DHT22;1333;50.958;6.770;2023-08-24T06:45:12;26.90;99.90
2647;DHT22;1333;50.958;6.770;2023-08-24T06:47:39;26.80;99.90
2647;DHT22;1333;50.958;6.770;2023-08-24T06:50:06;27.10;99.90
2647;DHT22;1333;50.958;6.770;2023-08-24T06:52:31;27.80;99.90
2647;DHT22;1333;50.958;6.770;2023-08-24T06:54:57;27.60;99.90
2647;DHT22;1333;50.958;6.770;2023-08-24T06:57:23;27.70;99.90
2647;DHT22;1333;50.958;6.770;2023-08-24T06:59:49;27.30;99.90
2647;DHT22;1333;50.958;6.770;2023-08-24T07:02:15;26.60;99.90
2647;DHT22;1333;50.958;6.770;2023-08-24T07:04:43;26.10;99.90
2647;DHT22;1333;50.958;6.770;2023-08-24T07:07:08;26.60;99.90
2647;DHT22;1333;50.958;6.770;2023-08-24T07:09:34;27.60;99.90
2647;DHT22;1333;50.958;6.770;2023-08-24T07:12:01;28.30;99.90
2647;DHT22;1333;50.958;6.770;2023-08-24T07:14:27;29.00;99.90
2647;DHT22;1333;50.958;6.770;2023-08-24T07:16:52;29.70;99.90
2647;DHT22;1333;50.958;6.770;2023-08-24T07:19:18;30.50;99.90
2647;DHT22;1333;50.958;6.770;2023-08-24T07:21:43;31.70;95.50
2647;DHT22;1333;50.958;6.770;2023-08-24T07:24:09;32.40;90.10
2647;DHT22;1333;50.958;6.770;2023-08-24T07:26:34;33.20;78.60
2647;DHT22;1333;50.958;6.770;2023-08-24T07:29:00;33.40;68.20
2647;DHT22;1333;50.958;6.770;2023-08-24T07:31:25;33.50;65.80
2647;DHT22;1333;50.958;6.770;2023-08-24T07:33:51;33.10;65.30
2647;DHT22;1333;50.958;6.770;2023-08-24T07:36:17;31.80;68.30
2647;DHT22;1333;50.958;6.770;2023-08-24T07:38:45;30.90;77.00
2647;DHT22;1333;50.958;6.770;2023-08-24T07:41:11;30.60;81.00
2647;DHT22;1333;50.958;6.770;2023-08-24T07:43:37;31.00;79.10
2647;DHT22;1333;50.958;6.770;2023-08-24T07:46:03;31.70;72.40
2647;DHT22;1333;50.958;6.770;2023-08-24T07:48:29;31.40;68.50
2647;DHT22;1333;50.958;6.770;2023-08-24T07:50:55;31.00;68.80
2647;DHT22;1333;50.958;6.770;2023-08-24T07:53:21;30.60;72.70
2647;DHT22;1333;50.958;6.770;2023-08-24T07:55:46;29.90;75.30
2647;DHT22;1333;50.958;6.770;2023-08-24T07:58:12;29.70;79.80
2647;DHT22;1333;50.958;6.770;2023-08-24T08:00:38;29.30;87.20
2647;DHT22;1333;50.958;6.770;2023-08-24T08:03:04;28.40;95.40
2647;DHT22;1333;50.958;6.770;2023-08-24T08:05:30;28.30;99.10
2647;DHT22;1333;50.958;6.770;2023-08-24T08:07:55;28.30;99.90
2647;DHT22;1333;50.958;6.770;2023-08-24T08:10:21;28.30;99.90
2647;DHT22;1333;50.958;6.770;2023-08-24T08:12:46;28.40;99.90
2647;DHT22;1333;50.958;6.770;2023-08-24T08:15:12;28.40;99.90
2647;DHT22;1333;50.958;6.770;2023-08-24T08:17:38;28.40;99.90
2647;DHT22;1333;50.958;6.770;2023-08-24T08:20:04;28.90;99.90
2647;DHT22;1333;50.958;6.770;2023-08-24T08:22:29;29.50;99.90
2647;DHT22;1333;50.958;6.770;2023-08-24T08:24:55;30.10;99.90
2647;DHT22;1333;50.958;6.770;2023-08-24T08:27:23;30.70;99.90
2647;DHT22;1333;50.958;6.770;2023-08-24T08:29:50;31.30;95.10
2647;DHT22;1333;50.958;6.770;2023-08-24T08:32:15;31.90;88.60
2647;DHT22;1333;50.958;6.770;2023-08-24T08:34:41;32.60;80.90
2647;DHT22;1333;50.958;6.770;2023-08-24T08:37:06;33.20;72.10
2647;DHT22;1333;50.958;6.770;2023-08-24T08:39:32;33.90;68.10
2647;DHT22;1333;50.958;6.770;2023-08-24T08:41:58;34.70;62.10
2647;DHT22;1333;50.958;6.770;2023-08-24T08:44:25;35.90;56.80
2647;DHT22;1333;50.958;6.770;2023-08-24T08:46:56;36.70;55.10
2647;DHT22;1333;50.958;6.770;2023-08-24T08:49:22;37.70;50.90
2647;DHT22;1333;50.958;6.770;2023-08-24T08:51:48;38.40;46.90
2647;DHT22;1333;50.958;6.770;2023-08-24T08:54:14;38.60;44.50
2647;DHT22;1333;50.958;6.770;2023-08-24T08:56:40;39.60;44.10
2647;DHT22;1333;50.958;6.770;2023-08-24T08:59:07;40.40;41.30
2647;DHT22;1333;50.958;6.770;2023-08-24T09:01:33;41.20;40.30
2647;DHT22;1333;50.958;6.770;2023-08-24T09:04:00;42.10;38.80
2647;DHT22;1333;50.958;6.770;2023-08-24T09:06:26;42.10;36.60
2647;DHT22;1333;50.958;6.770;2023-08-24T09:08:52;42.20;36.10
2647;DHT22;1333;50.958;6.770;2023-08-24T09:11:18;42.80;34.80
2647;DHT22;1333;50.958;6.770;2023-08-24T09:13:44;43.60;34.80
2647;DHT22;1333;50.958;6.770;2023-08-24T09:16:10;43.40;32.30
2647;DHT22;1333;50.958;6.770;2023-08-24T09:18:43;43.50;32.40
2647;DHT22;1333;50.958;6.770;2023-08-24T09:21:11;42.80;31.90
2647;DHT22;1333;50.958;6.770;2023-08-24T09:23:38;42.00;32.80
2647;DHT22;1333;50.958;6.770;2023-08-24T09:26:04;42.00;34.20
2647;DHT22;1333;50.958;6.770;2023-08-24T09:28:30;42.00;33.80
2647;DHT22;1333;50.958;6.770;2023-08-24T09:30:56;41.90;34.00
2647;DHT22;1333;50.958;6.770;2023-08-24T09:33:21;41.40;33.90
2647;DHT22;1333;50.958;6.770;2023-08-24T09:35:54;42.00;34.00
2647;DHT22;1333;50.958;6.770;2023-08-24T09:38:27;41.60;33.70
2647;DHT22;1333;50.958;6.770;2023-08-24T09:40:54;41.40;33.80
2647;DHT22;1333;50.958;6.770;2023-08-24T09:43:21;41.00;33.50
2647;DHT22;1333;50.958;6.770;2023-08-24T09:45:55;40.70;33.80
2647;DHT22;1333;50.958;6.770;2023-08-24T09:48:21;40.50;33.50
2647;DHT22;1333;50.958;6.770;2023-08-24T09:50:49;39.80;33.80
2647;DHT22;1333;50.958;6.770;2023-08-24T09:53:22;39.10;34.60
2647;DHT22;1333;50.958;6.770;2023-08-24T09:56:08;38.70;36.10
2647;DHT22;1333;50.958;6.770;2023-08-24T09:58:34;38.30;35.70
2647;DHT22;1333;50.958;6.770;2023-08-24T10:01:01;38.20;35.90
2647;DHT22;1333;50.958;6.770;2023-08-24T10:03:27;38.10;35.80
2647;DHT22;1333;50.958;6.770;2023-08-24T10:05:57;37.80;36.20
2647;DHT22;1333;50.958;6.770;2023-08-24T10:08:36;37.60;36.80
2647;DHT22;1333;50.958;6.770;2023-08-24T10:11:02;37.40;37.70
2647;DHT22;1333;50.958;6.770;2023-08-24T10:13:49;37.10;37.10
2647;DHT22;1333;50.958;6.770;2023-08-24T10:16:16;36.80;37.50
2647;DHT22;1333;50.958;6.770;2023-08-24T10:18:43;36.40;38.30
2647;DHT22;1333;50.958;6.770;2023-08-24T10:21:11;35.90;38.00
2647;DHT22;1333;50.958;6.770;2023-08-24T10:23:37;35.50;38.60
2647;DHT22;1333;50.958;6.770;2023-08-24T10:26:08;35.00;39.20
2647;DHT22;1333;50.958;6.770;2023-08-24T10:28:35;34.50;40.10
2647;DHT22;1333;50.958;6.770;2023-08-24T10:31:02;34.20;40.90
2647;DHT22;1333;50.958;6.770;2023-08-24T10:33:30;33.70;41.40
2647;DHT22;1333;50.958;6.770;2023-08-24T10:35:56;33.40;42.60
2647;DHT22;1333;50.958;6.770;2023-08-24T10:38:28;33.10;43.10
2647;DHT22;1333;50.958;6.770;2023-08-24T10:40:55;33.20;43.00
2647;DHT22;1333;50.958;6.770;2023-08-24T10:43:26;33.20;42.90
2647;DHT22;1333;50.958;6.770;2023-08-24T10:48:23;32.90;44.30
2647;DHT22;1333;50.958;6.770;2023-08-24T10:53:59;33.00;45.00
2647;DHT22;1333;50.958;6.770;2023-08-24T10:56:39;33.00;44.90
2647;DHT22;1333;50.958;6.770;2023-08-24T10:59:13;33.00;45.10
2647;DHT22;1333;50.958;6.770;2023-08-24T11:01:43;33.20;45.20
2647;DHT22;1333;50.958;6.770;2023-08-24T11:04:19;33.20;45.90
2647;DHT22;1333;50.958;6.770;2023-08-24T11:06:56;32.90;45.20
2647;DHT22;1333;50.958;6.770;2023-08-24T11:09:23;32.60;46.40
2647;DHT22;1333;50.958;6.770;2023-08-24T11:11:56;32.40;46.40
2647;DHT22;1333;50.958;6.770;2023-08-24T11:14:23;32.30;47.40
2647;DHT22;1333;50.958;6.770;2023-08-24T11:16:51;32.20;47.50
2647;DHT22;1333;50.958;6.770;2023-08-24T11:19:17;32.10;47.90
2647;DHT22;1333;50.958;6.770;2023-08-24T11:21:44;32.00;47.90
2647;DHT22;1333;50.958;6.770;2023-08-24T11:24:12;31.80;48.10
2647;DHT22;1333;50.958;6.770;2023-08-24T11:26:48;31.70;48.90
2647;DHT22;1333;50.958;6.770;2023-08-24T11:29:14;31.50;49.00
2647;DHT22;1333;50.958;6.770;2023-08-24T11:31:47;31.30;49.30
2647;DHT22;1333;50.958;6.770;2023-08-24T11:34:15;31.10;49.50
2647;DHT22;1333;50.958;6.770;2023-08-24T11:36:42;31.00;49.50
2647;DHT22;1333;50.958;6.770;2023-08-24T11:39:18;30.80;50.10
2647;DHT22;1333;50.958;6.770;2023-08-24T11:41:56;30.60;50.70
2647;DHT22;1333;50.958;6.770;2023-08-24T11:44:21;30.50;51.00
2647;DHT22;1333;50.958;6.770;2023-08-24T11:46:47;30.20;51.60
2647;DHT22;1333;50.958;6.770;2023-08-24T11:49:12;30.00;52.70
2647;DHT22;1333;50.958;6.770;2023-08-24T11:51:38;29.80;52.70
2647;DHT22;1333;50.958;6.770;2023-08-24T11:54:03;29.80;53.20
2647;DHT22;1333;50.958;6.770;2023-08-24T11:56:29;29.70;53.70
2647;DHT22;1333;50.958;6.770;2023-08-24T11:58:55;29.60;54.40
2647;DHT22;1333;50.958;6.770;2023-08-24T12:01:20;29.50;55.50
2647;DHT22;1333;50.958;6.770;2023-08-24T12:03:46;29.60;55.40
2647;DHT22;1333;50.958;6.770;2023-08-24T12:06:16;29.70;55.90
2647;DHT22;1333;50.958;6.770;2023-08-24T12:08:46;29.70;56.30
2647;DHT22;1333;50.958;6.770;2023-08-24T12:11:17;29.60;56.40
2647;DHT22;1333;50.958;6.770;2023-08-24T12:13:48;29.60;57.10
2647;DHT22;1333;50.958;6.770;2023-08-24T12:16:16;29.60;59.30
2647;DHT22;1333;50.958;6.770;2023-08-24T12:18:58;29.50;63.90
2647;DHT22;1333;50.958;6.770;2023-08-24T12:21:26;29.50;68.20
2647;DHT22;1333;50.958;6.770;2023-08-24T12:26:20;28.80;99.90
2647;DHT22;1333;50.958;6.770;2023-08-24T12:28:50;28.40;99.90
2647;DHT22;1333;50.958;6.770;2023-08-24T12:31:18;28.00;99.90
2647;DHT22;1333;50.958;6.770;2023-08-24T12:33:43;27.60;99.90
2647;DHT22;1333;50.958;6.770;2023-08-24T12:36:10;27.30;99.90
2647;DHT22;1333;50.958;6.770;2023-08-24T12:38:35;27.00;99.90
2647;DHT22;1333;50.958;6.770;2023-08-24T12:41:01;26.80;99.90
2647;DHT22;1333;50.958;6.770;2023-08-24T12:43:27;26.60;99.90
2647;DHT22;1333;50.958;6.770;2023-08-24T12:45:52;26.40;99.90
2647;DHT22;1333;50.958;6.770;2023-08-24T12:48:18;26.30;99.90
2647;DHT22;1333;50.958;6.770;2023-08-24T12:50:43;26.30;99.90
2647;DHT22;1333;50.958;6.770;2023-08-24T12:53:09;26.30;99.90
2647;DHT22;1333;50.958;6.770;2023-08-24T12:55:38;26.30;99.90
2647;DHT22;1333;50.958;6.770;2023-08-24T12:58:03;26.30;99.90
2647;DHT22;1333;50.958;6.770;2023-08-24T13:00:29;26.40;99.90
2647;DHT22;1333;50.958;6.770;2023-08-24T13:02:55;26.40;99.90
2647;DHT22;1333;50.958;6.770;2023-08-24T13:05:21;26.30;99.90
2647;DHT22;1333;50.958;6.770;2023-08-24T13:07:46;26.20;99.90
2647;DHT22;1333;50.958;6.770;2023-08-24T13:10:12;26.10;99.90
2647;DHT22;1333;50.958;6.770;2023-08-24T13:12:38;26.00;99.90
2647;DHT22;1333;50.958;6.770;2023-08-24T13:15:04;25.90;99.90
2647;DHT22;1333;50.958;6.770;2023-08-24T13:17:30;25.70;99.90
2647;DHT22;1333;50.958;6.770;2023-08-24T13:19:56;25.70;99.90
2647;DHT22;1333;50.958;6.770;2023-08-24T13:22:22;25.50;99.90
2647;DHT22;1333;50.958;6.770;2023-08-24T13:24:47;25.30;99.90
2647;DHT22;1333;50.958;6.770;2023-08-24T13:27:13;25.20;99.90
2647;DHT22;1333;50.958;6.770;2023-08-24T13:29:39;25.30;99.90
2647;DHT22;1333;50.958;6.770;2023-08-24T13:32:05;25.40;99.90
2647;DHT22;1333;50.958;6.770;2023-08-24T13:34:31;25.40;99.90
2647;DHT22;1333;50.958;6.770;2023-08-24T13:36:57;25.40;99.90
2647;DHT22;1333;50.958;6.770;2023-08-24T13:39:25;25.50;99.90
2647;DHT22;1333;50.958;6.770;2023-08-24T13:41:51;25.60;99.90
2647;DHT22;1333;50.958;6.770;2023-08-24T13:44:16;25.50;99.90
2647;DHT22;1333;50.958;6.770;2023-08-24T13:46:42;25.60;99.90
2647;DHT22;1333;50.958;6.770;2023-08-24T13:49:07;25.60;99.90
2647;DHT22;1333;50.958;6.770;2023-08-24T13:51:34;25.70;99.90
2647;DHT22;1333;50.958;6.770;2023-08-24T13:53:59;25.80;99.90
2647;DHT22;1333;50.958;6.770;2023-08-24T13:56:25;25.80;99.90
2647;DHT22;1333;50.958;6.770;2023-08-24T13:58:50;25.80;99.90
2647;DHT22;1333;50.958;6.770;2023-08-24T14:01:16;25.70;99.90
2647;DHT22;1333;50.958;6.770;2023-08-24T14:03:41;25.70;99.90
2647;DHT22;1333;50.958;6.770;2023-08-24T14:06:08;25.70;99.90
2647;DHT22;1333;50.958;6.770;2023-08-24T14:08:34;25.70;99.90
2647;DHT22;1333;50.958;6.770;2023-08-24T14:10:59;25.70;99.90
2647;DHT22;1333;50.958;6.770;2023-08-24T14:13:25;25.50;99.90
2647;DHT22;1333;50.958;6.770;2023-08-24T14:15:51;25.30;99.90
2647;DHT22;1333;50.958;6.770;2023-08-24T14:18:16;25.10;99.90
2647;DHT22;1333;50.958;6.770;2023-08-24T14:20:42;24.90;99.90
2647;DHT22;1333;50.958;6.770;2023-08-24T14:23:08;24.80;99.90
2647;DHT22;1333;50.958;6.770;2023-08-24T14:25:34;24.60;99.90
2647;DHT22;1333;50.958;6.770;2023-08-24T14:27:59;24.50;99.90
2647;DHT22;1333;50.958;6.770;2023-08-24T14:30:26;24.40;99.90
2647;DHT22;1333;50.958;6.770;2023-08-24T14:32:51;24.20;99.90
2647;DHT22;1333;50.958;6.770;2023-08-24T14:35:17;24.10;99.90
2647;DHT22;1333;50.958;6.770;2023-08-24T14:37:42;23.90;99.90
2647;DHT22;1333;50.958;6.770;2023-08-24T14:40:08;23.60;99.90
2647;DHT22;1333;50.958;6.770;2023-08-24T14:42:34;23.50;99.90
2647;DHT22;1333;50.958;6.770;2023-08-24T14:44:59;23.40;99.90
2647;DHT22;1333;50.958;6.770;2023-08-24T14:47:25;23.30;99.90
2647;DHT22;1333;50.958;6.770;2023-08-24T14:49:50;23.20;99.90
2647;DHT22;1333;50.958;6.770;2023-08-24T14:52:16;23.20;99.90
2647;DHT22;1333;50.958;6.770;2023-08-24T14:54:41;23.10;99.90
2647;DHT22;1333;50.958;6.770;2023-08-24T14:57:07;23.00;99.90
2647;DHT22;1333;50.958;6.770;2023-08-24T14:59:32;22.90;99.90
2647;DHT22;1333;50.958;6.770;2023-08-24T15:01:59;22.70;99.90
2647;DHT22;1333;50.958;6.770;2023-08-24T15:04:26;22.60;99.90
2647;DHT22;1333;50.958;6.770;2023-08-24T15:06:52;22.60;99.90
2647;DHT22;1333;50.958;6.770;2023-08-24T15:09:17;22.40;99.90
2647;DHT22;1333;50.958;6.770;2023-08-24T15:11:43;22.30;99.90
2647;DHT22;1333;50.958;6.770;2023-08-24T15:14:08;22.20;99.90
2647;DHT22;1333;50.958;6.770;2023-08-24T15:16:34;22.10;99.90
2647;DHT22;1333;50.958;6.770;2023-08-24T15:18:59;22.10;99.90
2647;DHT22;1333;50.958;6.770;2023-08-24T15:21:25;22.10;99.90
2647;DHT22;1333;50.958;6.770;2023-08-24T15:23:51;22.10;99.90
2647;DHT22;1333;50.958;6.770;2023-08-24T15:26:16;22.00;99.90
2647;DHT22;1333;50.958;6.770;2023-08-24T15:29:09;22.00;99.90
2647;DHT22;1333;50.958;6.770;2023-08-24T15:31:38;21.90;99.90
2647;DHT22;1333;50.958;6.770;2023-08-24T15:34:03;21.90;99.90
2647;DHT22;1333;50.958;6.770;2023-08-24T15:36:29;21.90;99.90
2647;DHT22;1333;50.958;6.770;2023-08-24T15:38:55;21.90;99.90
2647;DHT22;1333;50.958;6.770;2023-08-24T15:41:20;21.90;99.90
2647;DHT22;1333;50.958;6.770;2023-08-24T15:43:46;21.80;99.90
2647;DHT22;1333;50.958;6.770;2023-08-24T15:46:11;21.70;99.90
2647;DHT22;1333;50.958;6.770;2023-08-24T15:48:37;21.70;99.90
2647;DHT22;1333;50.958;6.770;2023-08-24T15:51:03;21.60;99.90
2647;DHT22;1333;50.958;6.770;2023-08-24T15:53:31;21.40;99.90
2647;DHT22;1333;50.958;6.770;2023-08-24T15:55:57;21.20;99.90
2647;DHT22;1333;50.958;6.770;2023-08-24T15:58:23;21.10;99.90
2647;DHT22;1333;50.958;6.770;2023-08-24T16:00:50;21.10;99.90
2647;DHT22;1333;50.958;6.770;2023-08-24T16:03:15;21.10;99.90
2647;DHT22;1333;50.958;6.770;2023-08-24T16:05:41;21.10;99.90
2647;DHT22;1333;50.958;6.770;2023-08-24T16:08:06;21.20;99.90
2647;DHT22;1333;50.958;6.770;2023-08-24T16:10:32;21.20;99.90
2647;DHT22;1333;50.958;6.770;2023-08-24T16:12:58;21.30;99.90
2647;DHT22;1333;50.958;6.770;2023-08-24T16:15:23;21.30;99.90